This is the latest recevied weather packets stored in our database for station/object K9UO. If no packets are shown the sender has not sent any weather packets the latest 1 day(s).
| Time | Temp. | Humidity | Pressure | Rain* | Wind** | Luminosity | Snow |
|---|---|---|---|---|---|---|---|
| 1777968955 | 12.78° C | 1% | 1005 hPa | 2.29 mm | 2.68 m/s, 203° | - | - |
| 1777968054 | 12.78° C | 1% | 1004.7 hPa | 2.03 mm | 1.34 m/s, 202° | - | - |
| 1777967151 | 12.78° C | 1% | 1005.4 hPa | 1.02 mm | 1.79 m/s, 209° | - | - |
| 1777966259 | 12.78° C | 1% | 1005.9 hPa | 1.02 mm | 2.68 m/s, 217° | - | - |
| 1777965337 | 12.22° C | 1% | 1005.4 hPa | 0.76 mm | 2.24 m/s, 360° | - | - |
| 1777964433 | 12.22° C | 1% | 1005.4 hPa | 0.51 mm | 0 m/s | - | - |
| 1777963539 | 12.78° C | 1% | 1006 hPa | 0.51 mm | 0.89 m/s, 278° | - | - |
| 1777962624 | 13.33° C | 1% | 1005.6 hPa | 0 mm | 1.79 m/s, 306° | - | - |
| 1777961730 | 15° C | 10% | 1005.5 hPa | 0 mm | 1.34 m/s, 234° | - | - |
| 1777960815 | 17.22° C | 54% | 1005.2 hPa | 0 mm | 3.58 m/s, 300° | - | - |
| 1777959911 | 18.33° C | 57% | 1004.5 hPa | 0 mm | 2.24 m/s, 318° | - | - |
| 1777959007 | 18.33° C | 57% | 1003.9 hPa | 0 mm | 2.24 m/s, 307° | - | - |
| 1777958106 | 18.33° C | 57% | 1002.7 hPa | 0 mm | 4.02 m/s, 213° | - | - |
| 1777957202 | 18.33° C | 58% | 1002.3 hPa | 0 mm | 3.58 m/s, 360° | - | - |
| 1777956360 | 18.33° C | 57% | 1002.1 hPa | 0 mm | 3.13 m/s, 206° | - | - |
| 1777955468 | 18.33° C | 57% | 1002.1 hPa | 0 mm | 3.13 m/s, 221° | - | - |
| 1777954560 | 18.33° C | 57% | 1002.2 hPa | 0 mm | 3.13 m/s, 204° | - | - |
| 1777953656 | 18.89° C | 57% | 1002.5 hPa | 0 mm | 3.13 m/s, 205° | - | - |
| 1777952750 | 18.89° C | 57% | 1002.6 hPa | 0 mm | 3.13 m/s, 206° | - | - |
| 1777951850 | 18.89° C | 57% | 1002.7 hPa | 0 mm | 3.58 m/s, 219° | - | - |
| 1777950965 | 18.89° C | 57% | 1002.9 hPa | 0 mm | 2.68 m/s, 202° | - | - |
| 1777950048 | 18.89° C | 57% | 1002.9 hPa | 0 mm | 2.68 m/s, 213° | - | - |
* Rain latest hour (hover to see other rain measurements)
** Current wind speed in m/s (hover to see current wind gust speed)